createdAt,value
2024-04-19T00:01:53.939Z,7.82
2024-04-19T00:04:21.415Z,7.82
2024-04-19T00:06:53.735Z,7.83
2024-04-19T00:09:20.971Z,7.83
2024-04-19T00:11:50.515Z,7.87
2024-04-19T00:14:17.792Z,7.85
2024-04-19T00:16:47.592Z,7.85
2024-04-19T00:19:17.175Z,7.84
2024-04-19T00:21:44.215Z,7.85
2024-04-19T00:24:16.593Z,7.87
2024-04-19T00:26:43.629Z,7.87
2024-04-19T00:29:13.320Z,7.85
2024-04-19T00:31:40.369Z,7.87
2024-04-19T00:34:10.469Z,7.85
2024-04-19T00:36:37.647Z,7.84
2024-04-19T00:39:07.361Z,7.83
2024-04-19T00:41:36.981Z,7.82
2024-04-19T00:44:06.579Z,7.79
2024-04-19T00:46:34.197Z,7.81
2024-04-19T00:49:04.257Z,7.79
2024-04-19T00:51:33.167Z,7.73
2024-04-19T00:54:02.967Z,7.67
2024-04-19T00:56:32.094Z,7.64
2024-04-19T00:59:04.329Z,7.58
2024-04-19T01:01:31.861Z,7.55
2024-04-19T01:04:01.557Z,7.52
2024-04-19T01:06:28.739Z,7.47
2024-04-19T01:08:58.543Z,7.38
2024-04-19T01:11:32.164Z,7.34
2024-04-19T01:14:04.591Z,7.30
2024-04-19T01:16:31.828Z,7.30
2024-04-19T01:19:01.434Z,7.25
2024-04-19T01:21:29.973Z,7.19
2024-04-19T01:24:08.557Z,7.19
2024-04-19T01:26:37.971Z,7.17
2024-04-19T01:29:07.341Z,7.16
2024-04-19T01:31:34.248Z,7.13
2024-04-19T01:34:03.686Z,7.11
2024-04-19T01:36:30.598Z,7.09
2024-04-19T01:39:00.004Z,7.08
2024-04-19T01:41:27.073Z,7.07
2024-04-19T01:43:59.686Z,7.05
2024-04-19T01:46:26.502Z,7.03
2024-04-19T01:48:56.004Z,7.03
2024-04-19T01:51:22.981Z,7.00
2024-04-19T01:53:52.424Z,6.98
2024-04-19T01:56:21.906Z,6.97
2024-04-19T01:58:48.745Z,6.97
2024-04-19T02:01:21.045Z,6.96
2024-04-19T02:03:48.024Z,6.91
2024-04-19T02:06:18.481Z,6.89
2024-04-19T02:08:45.332Z,6.87
2024-04-19T02:11:14.755Z,6.88
2024-04-19T02:13:41.579Z,6.88
2024-04-19T02:16:10.938Z,6.86
2024-04-19T02:18:40.390Z,6.85
2024-04-19T02:21:09.860Z,6.84
2024-04-19T02:23:46.403Z,6.83
2024-04-19T02:26:13.495Z,6.81
2024-04-19T02:29:00.092Z,6.81
2024-04-19T02:31:30.194Z,6.79
2024-04-19T02:34:02.289Z,6.76
2024-04-19T02:36:29.184Z,6.74
2024-04-19T02:38:58.575Z,6.75
2024-04-19T02:41:28.020Z,6.76
2024-04-19T02:43:57.373Z,6.81
2024-04-19T02:46:26.847Z,6.78
2024-04-19T02:48:56.340Z,6.78
2024-04-19T02:51:28.404Z,6.76
2024-04-19T02:53:57.788Z,6.72
2024-04-19T02:56:27.375Z,6.73
2024-04-19T02:58:56.786Z,6.64
2024-04-19T03:01:26.269Z,6.59
2024-04-19T03:03:55.701Z,6.58
2024-04-19T03:06:27.886Z,6.56
2024-04-19T03:08:57.316Z,6.55
2024-04-19T03:11:46.859Z,6.55
2024-04-19T03:14:16.266Z,6.51
2024-04-19T03:16:45.635Z,6.53
2024-04-19T03:19:14.977Z,6.52
2024-04-19T03:21:47.028Z,6.52
2024-04-19T03:24:16.458Z,6.55
2024-04-19T03:26:47.577Z,6.58
2024-04-19T03:29:17.005Z,6.58
2024-04-19T03:31:46.408Z,6.55
2024-04-19T03:34:15.934Z,6.57
2024-04-19T03:36:47.934Z,6.59
2024-04-19T03:39:17.251Z,6.60
2024-04-19T03:41:48.174Z,6.61
2024-04-19T03:44:33.726Z,6.62
2024-04-19T03:47:03.121Z,6.61
2024-04-19T03:49:32.598Z,6.62
2024-04-19T03:52:04.622Z,6.67
2024-04-19T03:54:34.025Z,6.64
2024-04-19T03:57:03.673Z,6.64
2024-04-19T03:59:33.087Z,6.66
2024-04-19T04:02:17.913Z,6.69
2024-04-19T04:04:56.595Z,6.68
2024-04-19T04:07:28.615Z,6.72
2024-04-19T04:09:58.186Z,6.76
2024-04-19T04:12:27.665Z,6.75
2024-04-19T04:14:57.080Z,6.74
2024-04-19T04:17:26.592Z,6.76
2024-04-19T04:19:56.308Z,6.77
2024-04-19T04:22:28.371Z,6.76
2024-04-19T04:24:57.752Z,6.74
2024-04-19T04:27:27.549Z,6.76
2024-04-19T04:29:56.991Z,6.77
2024-04-19T04:32:26.424Z,6.79
2024-04-19T04:34:55.793Z,6.77
2024-04-19T04:37:29.751Z,6.81
2024-04-19T04:39:59.228Z,6.82
2024-04-19T04:42:28.734Z,6.83
2024-04-19T04:44:58.155Z,6.86
2024-04-19T04:47:27.618Z,6.84
2024-04-19T04:49:57.081Z,6.84
2024-04-19T04:52:29.400Z,6.86
2024-04-19T04:54:58.981Z,6.85
2024-04-19T04:57:28.522Z,6.82
2024-04-19T04:59:57.986Z,6.84
2024-04-19T05:02:27.480Z,6.88
2024-04-19T05:04:57.772Z,6.87
2024-04-19T05:07:31.124Z,6.87
2024-04-19T05:10:00.576Z,6.84
2024-04-19T05:12:30.388Z,6.87
2024-04-19T05:14:59.986Z,6.87
2024-04-19T05:17:29.519Z,6.89
2024-04-19T05:19:58.958Z,6.92
2024-04-19T05:22:30.950Z,6.97
2024-04-19T05:25:00.357Z,6.95
2024-04-19T05:27:29.839Z,6.95
2024-04-19T05:29:59.240Z,7.02
2024-04-19T05:32:28.710Z,7.04
2024-04-19T05:34:58.182Z,7.06
2024-04-19T05:37:27.610Z,7.05
2024-04-19T05:39:59.601Z,7.11
2024-04-19T05:42:30.668Z,7.12
2024-04-19T05:45:01.162Z,7.11
2024-04-19T05:47:30.569Z,7.10
2024-04-19T05:49:59.962Z,7.13
2024-04-19T05:52:29.390Z,7.16
2024-04-19T05:55:01.715Z,7.18
2024-04-19T05:57:31.244Z,7.27
2024-04-19T06:00:00.753Z,7.26
2024-04-19T06:02:30.293Z,7.32
2024-04-19T06:04:59.778Z,7.26
2024-04-19T06:07:29.182Z,7.27
2024-04-19T06:10:01.206Z,7.25
2024-04-19T06:12:30.512Z,7.27
2024-04-19T06:14:59.923Z,7.31
2024-04-19T06:17:29.422Z,7.32
2024-04-19T06:19:58.867Z,7.39
2024-04-19T06:22:28.297Z,7.38
2024-04-19T06:24:57.894Z,7.42
2024-04-19T06:27:29.963Z,7.43
2024-04-19T06:29:59.371Z,7.45
2024-04-19T06:32:28.790Z,7.45
2024-04-19T06:34:58.221Z,7.46
2024-04-19T06:37:28.445Z,7.50
2024-04-19T06:40:05.434Z,7.53
2024-04-19T06:42:39.829Z,7.53
2024-04-19T06:45:10.004Z,7.54
2024-04-19T06:47:39.745Z,7.59
2024-04-19T06:50:09.990Z,7.61
2024-04-19T06:52:39.441Z,7.65
2024-04-19T06:55:09.064Z,7.68
2024-04-19T06:57:41.241Z,7.69
2024-04-19T07:00:22.153Z,7.72
2024-04-19T07:03:03.440Z,7.75
2024-04-19T07:05:33.846Z,7.84
2024-04-19T07:08:03.319Z,7.83
2024-04-19T07:10:32.748Z,7.87
2024-04-19T07:13:05.146Z,7.89
2024-04-19T07:15:34.865Z,7.92
2024-04-19T07:18:07.062Z,7.96
2024-04-19T07:20:36.532Z,7.98
2024-04-19T07:23:05.975Z,8.01
2024-04-19T07:25:35.423Z,8.04
2024-04-19T07:28:08.087Z,8.09
2024-04-19T07:30:37.596Z,8.12
2024-04-19T07:33:07.505Z,8.11
2024-04-19T07:35:36.968Z,8.16
2024-04-19T07:38:06.714Z,8.20
2024-04-19T07:40:36.918Z,8.19
2024-04-19T07:43:09.006Z,8.21
2024-04-19T07:45:38.496Z,8.25
2024-04-19T07:48:08.844Z,8.30
2024-04-19T07:50:38.350Z,8.32
2024-04-19T07:53:09.666Z,8.33
2024-04-19T07:55:41.432Z,8.34
2024-04-19T07:58:13.637Z,8.38
2024-04-19T08:00:43.535Z,8.44
2024-04-19T08:03:12.968Z,8.53
2024-04-19T08:05:42.384Z,8.60
2024-04-19T08:08:11.825Z,8.71
2024-04-19T08:10:41.229Z,8.77
2024-04-19T08:13:13.507Z,8.85
2024-04-19T08:15:43.211Z,8.90
2024-04-19T08:18:12.929Z,8.97
2024-04-19T08:20:42.420Z,9.04
2024-04-19T08:23:13.482Z,9.09
2024-04-19T08:25:44.178Z,9.18
2024-04-19T08:28:16.328Z,9.20
2024-04-19T08:30:45.878Z,9.27
2024-04-19T08:33:15.411Z,9.34
2024-04-19T08:35:45.043Z,9.39
2024-04-19T08:38:14.566Z,9.47
2024-04-19T08:40:53.844Z,9.50
2024-04-19T08:43:26.497Z,9.58
2024-04-19T08:46:00.900Z,9.67
2024-04-19T08:48:32.742Z,9.77
2024-04-19T08:51:03.463Z,9.88
2024-04-19T08:53:33.456Z,9.98
2024-04-19T08:56:04.448Z,10.03
2024-04-19T08:58:38.027Z,10.10
2024-04-19T22:50:53.368Z,6.36
2024-04-19T22:53:22.726Z,6.36
2024-04-19T22:55:56.703Z,6.36
2024-04-19T22:58:26.694Z,6.37
2024-04-19T23:00:56.202Z,6.39
2024-04-19T23:03:25.695Z,6.32
2024-04-19T23:06:06.227Z,6.29
2024-04-19T23:08:35.778Z,6.25
2024-04-19T23:11:05.701Z,6.25
2024-04-19T23:13:35.484Z,6.25
2024-04-19T23:16:05.286Z,6.21
2024-04-19T23:18:35.075Z,6.23
2024-04-19T23:21:08.728Z,6.19
2024-04-19T23:23:40.538Z,6.17
2024-04-19T23:26:12.156Z,6.15
2024-04-19T23:28:39.764Z,6.12
2024-04-19T23:31:09.712Z,6.14
2024-04-19T23:33:39.337Z,6.07
2024-04-19T23:36:14.063Z,6.09
2024-04-19T23:38:43.469Z,6.03
2024-04-19T23:41:14.340Z,6.03
2024-04-19T23:43:43.743Z,6.00
2024-04-19T23:46:13.114Z,5.99
2024-04-19T23:48:42.572Z,5.98
2024-04-19T23:51:15.148Z,5.95
2024-04-19T23:53:44.580Z,5.93
2024-04-19T23:56:13.991Z,5.86
2024-04-19T23:58:43.292Z,5.87
